createdAt,value
2018-12-09T00:03:28.706Z,2.57
2018-12-09T00:08:23.888Z,1.73
2018-12-09T00:13:19.196Z,2.00
2018-12-09T00:18:14.789Z,2.23
2018-12-09T00:23:10.555Z,3.20
2018-12-09T00:28:05.814Z,3.20
2018-12-09T00:33:00.522Z,2.83
2018-12-09T00:37:55.194Z,3.30
2018-12-09T00:42:49.902Z,3.27
2018-12-09T00:47:44.900Z,3.53
2018-12-09T00:52:39.631Z,4.03
2018-12-09T00:57:34.859Z,3.90
2018-12-09T01:02:29.525Z,4.07
2018-12-09T01:07:24.586Z,4.20
2018-12-09T01:12:19.387Z,4.83
2018-12-09T01:17:14.931Z,4.77
2018-12-09T01:22:10.073Z,4.20
2018-12-09T01:27:05.604Z,5.23
2018-12-09T01:32:00.326Z,5.17
2018-12-09T01:36:55.418Z,4.87
2018-12-09T01:41:50.113Z,6.07
2018-12-09T01:46:45.371Z,5.20
2018-12-09T01:51:40.045Z,4.53
2018-12-09T01:56:34.705Z,4.50
2018-12-09T02:01:29.482Z,4.17
2018-12-09T02:06:24.143Z,4.47
2018-12-09T02:11:18.814Z,4.20
2018-12-09T02:16:13.532Z,3.90
2018-12-09T02:21:08.238Z,3.77
2018-12-09T02:26:02.937Z,3.97
2018-12-09T02:30:57.654Z,3.73
2018-12-09T02:35:52.341Z,3.60
2018-12-09T02:40:47.052Z,3.73
2018-12-09T02:45:42.359Z,4.13
2018-12-09T02:50:37.021Z,3.67
2018-12-09T02:55:31.745Z,3.23
2018-12-09T03:00:26.471Z,3.90
2018-12-09T03:05:21.167Z,3.40
2018-12-09T03:10:15.865Z,3.93
2018-12-09T03:15:10.556Z,3.53
2018-12-09T03:20:05.395Z,4.57
2018-12-09T03:25:00.103Z,3.37
2018-12-09T03:29:55.008Z,3.70
2018-12-09T03:34:50.245Z,3.90
2018-12-09T03:39:44.934Z,3.83
2018-12-09T03:44:39.626Z,4.10
2018-12-09T03:49:34.321Z,4.20
2018-12-09T03:54:29.062Z,3.93
2018-12-09T03:59:23.733Z,4.30
2018-12-09T04:04:18.394Z,3.70
2018-12-09T04:09:13.069Z,2.20
2018-12-09T04:14:07.824Z,1.60
2018-12-09T04:19:02.471Z,1.93
2018-12-09T04:23:57.555Z,1.93
2018-12-09T04:28:52.265Z,1.77
2018-12-09T04:33:47.035Z,2.30
2018-12-09T04:38:41.751Z,2.30
2018-12-09T04:43:36.715Z,2.17
2018-12-09T04:48:31.987Z,2.30
2018-12-09T04:53:26.943Z,2.03
2018-12-09T04:58:21.652Z,2.30
2018-12-09T05:03:16.310Z,2.30
2018-12-09T05:08:11.054Z,2.47
2018-12-09T05:13:05.786Z,3.43
2018-12-09T05:18:00.450Z,3.87
2018-12-09T05:22:55.261Z,4.10
2018-12-09T05:27:49.975Z,4.10
2018-12-09T05:32:44.688Z,3.90
2018-12-09T05:37:39.387Z,4.23
2018-12-09T05:42:34.094Z,3.43
2018-12-09T05:47:28.826Z,2.87
2018-12-09T05:52:23.940Z,3.13
2018-12-09T05:57:18.595Z,3.00
2018-12-09T06:02:29.964Z,3.20
2018-12-09T06:07:24.598Z,2.90
2018-12-09T06:12:19.306Z,3.47
2018-12-09T06:17:14.016Z,3.90
2018-12-09T06:22:08.674Z,4.20
2018-12-09T06:27:03.940Z,4.50
2018-12-09T06:31:58.645Z,4.00
2018-12-09T06:36:53.330Z,3.50
2018-12-09T06:41:48.063Z,3.70
2018-12-09T06:46:42.805Z,4.23
2018-12-09T06:51:37.492Z,3.70
2018-12-09T06:56:32.160Z,3.90
2018-12-09T07:01:26.836Z,3.80
2018-12-09T07:06:22.009Z,4.47
2018-12-09T07:11:16.687Z,3.23
2018-12-09T07:16:11.407Z,3.30
2018-12-09T07:21:06.127Z,3.73
2018-12-09T07:26:00.802Z,3.50
2018-12-09T07:30:55.546Z,3.57
2018-12-09T07:35:50.201Z,3.57
2018-12-09T07:40:44.878Z,3.50
2018-12-09T07:45:39.563Z,3.10
2018-12-09T07:50:34.200Z,3.60
2018-12-09T07:55:28.862Z,3.27
2018-12-09T08:00:23.551Z,3.17
2018-12-09T08:05:18.251Z,3.77
2018-12-09T08:10:12.956Z,3.20
2018-12-09T08:15:07.711Z,3.70
2018-12-09T08:20:03.058Z,3.33
2018-12-09T08:24:57.822Z,3.23
2018-12-09T08:29:54.240Z,3.33
2018-12-09T08:34:48.902Z,3.63
2018-12-09T08:39:43.564Z,3.33
2018-12-09T08:44:38.282Z,3.90
2018-12-09T08:49:32.943Z,3.17
2018-12-09T08:54:27.613Z,4.23
2018-12-09T08:59:22.353Z,3.33
2018-12-09T09:04:17.068Z,3.97
2018-12-09T09:09:11.788Z,3.40
2018-12-09T09:14:06.449Z,3.33
2018-12-09T09:19:01.124Z,3.47
2018-12-09T09:23:55.804Z,3.53
2018-12-09T09:28:50.469Z,3.40
2018-12-09T09:33:45.225Z,3.13
2018-12-09T09:38:39.890Z,3.90
2018-12-09T09:43:34.597Z,2.63
2018-12-09T09:48:29.232Z,3.40
2018-12-09T09:53:23.928Z,3.67
2018-12-09T09:58:18.643Z,2.80
2018-12-09T10:03:13.294Z,3.27
2018-12-09T10:08:08.003Z,4.07
2018-12-09T10:13:02.757Z,3.20
2018-12-09T10:17:57.472Z,3.60
2018-12-09T10:22:52.228Z,3.17
2018-12-09T10:27:46.910Z,3.40
2018-12-09T10:32:41.556Z,3.50
2018-12-09T10:37:36.318Z,3.30
2018-12-09T10:42:30.973Z,3.27
2018-12-09T10:47:25.645Z,2.90
2018-12-09T10:52:20.318Z,2.67
2018-12-09T10:57:14.995Z,2.73
2018-12-09T11:02:14.705Z,2.67
2018-12-09T11:07:09.360Z,2.50
2018-12-09T11:12:04.101Z,2.50
2018-12-09T11:16:58.844Z,2.03
2018-12-09T11:21:53.528Z,1.97
2018-12-09T11:26:48.227Z,2.00
2018-12-09T11:31:42.949Z,1.83
2018-12-09T11:36:39.756Z,1.30
2018-12-09T11:41:34.428Z,1.40
2018-12-09T11:46:29.097Z,1.20
2018-12-09T11:51:23.761Z,1.40
2018-12-09T11:56:18.492Z,1.57
2018-12-09T12:01:13.161Z,1.23
2018-12-09T12:06:07.829Z,1.50
2018-12-09T12:11:02.499Z,3.93
2018-12-09T12:15:57.222Z,1.73
2018-12-09T12:20:52.110Z,1.23
2018-12-09T12:25:46.863Z,1.47
2018-12-09T12:30:41.586Z,1.47
2018-12-09T12:35:36.361Z,1.73
2018-12-09T12:40:31.063Z,1.70
2018-12-09T12:45:25.735Z,1.97
2018-12-09T12:50:20.432Z,1.90
2018-12-09T12:55:15.150Z,2.10
2018-12-09T13:00:15.449Z,1.90
2018-12-09T13:05:10.093Z,1.97
2018-12-09T13:10:05.120Z,5.93
2018-12-09T13:14:59.836Z,1.37
2018-12-09T13:19:54.518Z,1.40
2018-12-09T13:24:49.188Z,1.47
2018-12-09T13:29:43.886Z,1.43
2018-12-09T13:34:38.723Z,1.57
2018-12-09T13:39:33.464Z,4.37
2018-12-09T13:44:28.114Z,2.30
2018-12-09T13:49:22.776Z,1.67
2018-12-09T13:54:17.460Z,2.10
2018-12-09T13:59:12.360Z,1.80
2018-12-09T14:04:07.001Z,1.60
2018-12-09T14:09:01.668Z,1.60
2018-12-09T14:13:56.320Z,1.70
2018-12-09T14:18:51.033Z,1.83
2018-12-09T14:23:45.740Z,1.60
2018-12-09T14:28:40.446Z,1.87
2018-12-09T14:33:35.160Z,2.20
2018-12-09T14:38:30.128Z,1.70
2018-12-09T14:43:24.750Z,2.20
2018-12-09T14:48:19.704Z,2.70
2018-12-09T14:53:14.406Z,2.23
2018-12-09T14:58:09.740Z,2.47
2018-12-09T15:03:04.460Z,2.53
2018-12-09T15:07:59.197Z,2.50
2018-12-09T15:12:53.894Z,2.20
2018-12-09T15:17:48.610Z,2.47
2018-12-09T15:22:43.401Z,2.30
2018-12-09T15:27:38.155Z,2.37
2018-12-09T15:32:32.868Z,2.40
2018-12-09T15:37:27.521Z,2.80
2018-12-09T15:42:22.216Z,2.60
2018-12-09T15:47:17.201Z,2.40
2018-12-09T15:52:11.900Z,2.50
2018-12-09T15:57:09.066Z,2.50
2018-12-09T16:02:03.787Z,2.83
2018-12-09T16:06:58.457Z,2.73
2018-12-09T16:11:54.853Z,3.00
2018-12-09T16:27:23.791Z,2.97
2018-12-09T16:32:18.611Z,2.93
2018-12-09T16:37:14.171Z,2.10
2018-12-09T16:42:09.158Z,2.50
2018-12-09T16:47:04.312Z,3.10
2018-12-09T16:51:59.128Z,2.63
2018-12-09T16:56:53.935Z,2.50
2018-12-09T17:01:48.793Z,3.00
2018-12-09T17:06:43.603Z,3.30
2018-12-09T17:11:38.394Z,2.37
2018-12-09T17:16:33.144Z,2.67
2018-12-09T17:21:28.152Z,2.43
2018-12-09T17:26:23.202Z,3.43
2018-12-09T17:31:18.066Z,3.13
2018-12-09T17:36:12.937Z,2.43
2018-12-09T17:41:07.784Z,3.00
2018-12-09T17:46:02.568Z,4.83
2018-12-09T17:50:57.403Z,3.43
2018-12-09T17:55:52.254Z,3.63
2018-12-09T18:00:47.076Z,3.90
2018-12-09T18:05:41.857Z,4.50
2018-12-09T18:10:36.654Z,4.30
2018-12-09T18:15:31.609Z,3.90
2018-12-09T18:20:26.462Z,5.03
2018-12-09T18:25:21.259Z,4.47
2018-12-09T18:30:16.090Z,4.53
2018-12-09T18:35:11.775Z,3.60
2018-12-09T18:40:08.238Z,3.53
2018-12-09T18:45:03.018Z,4.03
2018-12-09T18:50:06.859Z,4.07
2018-12-09T18:55:01.699Z,4.83
2018-12-09T18:59:56.525Z,4.60
2018-12-09T19:04:52.413Z,3.37
2018-12-09T19:10:04.233Z,4.07
2018-12-09T19:15:16.494Z,3.10
2018-12-09T19:20:19.982Z,2.60
2018-12-09T19:25:23.425Z,3.20
2018-12-09T19:30:31.548Z,2.63
2018-12-09T19:35:46.314Z,3.57
2018-12-09T19:40:56.868Z,4.33
2018-12-09T19:45:51.670Z,3.30
2018-12-09T19:50:46.720Z,4.30
2018-12-09T19:55:48.202Z,4.13
2018-12-09T20:00:43.261Z,3.57
2018-12-09T20:05:38.047Z,4.27
2018-12-09T20:10:32.939Z,15.80
2018-12-09T20:15:27.738Z,11.37
2018-12-09T20:20:22.607Z,5.87
2018-12-09T20:25:17.665Z,3.87
2018-12-09T20:30:12.460Z,4.87
2018-12-09T20:35:07.397Z,4.67
2018-12-09T20:40:02.242Z,5.10
2018-12-09T20:44:57.006Z,3.60
2018-12-09T20:49:52.636Z,3.80
2018-12-09T20:54:47.681Z,3.20
2018-12-09T20:59:42.566Z,3.40
2018-12-09T21:04:37.427Z,3.50
2018-12-09T21:09:32.230Z,3.73
2018-12-09T21:14:27.033Z,2.93
2018-12-09T21:19:21.950Z,3.10
2018-12-09T21:24:16.863Z,3.90
2018-12-09T21:29:11.712Z,3.97
2018-12-09T21:34:06.893Z,3.80
2018-12-09T21:39:01.817Z,3.93
2018-12-09T21:43:56.601Z,3.03
2018-12-09T21:48:51.481Z,4.47
2018-12-09T21:53:46.370Z,2.60
2018-12-09T21:58:41.173Z,3.07
2018-12-09T22:03:36.022Z,3.10
2018-12-09T22:08:30.836Z,3.13
2018-12-09T22:13:25.639Z,3.33
2018-12-09T22:18:20.459Z,3.37
2018-12-09T22:23:15.235Z,3.30
2018-12-09T22:28:10.025Z,3.23
2018-12-09T22:33:04.879Z,3.03
2018-12-09T22:37:59.910Z,3.50
2018-12-09T22:42:57.856Z,3.13
2018-12-09T22:47:52.681Z,3.40
2018-12-09T22:52:47.482Z,3.20
2018-12-09T22:57:42.269Z,3.10
2018-12-09T23:02:42.306Z,2.97
2018-12-09T23:07:42.194Z,3.30
2018-12-09T23:12:36.966Z,3.00
2018-12-09T23:17:31.791Z,3.40
2018-12-09T23:22:26.568Z,3.63
2018-12-09T23:27:21.379Z,3.87
2018-12-09T23:32:16.175Z,4.30
2018-12-09T23:37:11.083Z,3.53
2018-12-09T23:42:05.867Z,3.63
2018-12-09T23:47:00.658Z,3.00
2018-12-09T23:51:55.428Z,3.93
2018-12-09T23:56:50.214Z,3.97
